Time;durP1;ratioP1;P1;durP2;ratioP2;P2;SDS_P1;SDS_P2;PMS_P1;PMS_P2;Temp;Humidity;BMP_temperature;BMP_pressure;BME280_temperature;BME280_humidity;BME280_pressure;Samples;Min_cycle;Max_cycle;Signal;HPM_P1;HPM_P2
2024/03/19 00:00:21;;;;;;;12.40;8.80;;;;;;;4.99;50.53;100733.47;6122782;22;97039;-79
2024/03/19 00:02:47;;;;;;;13.87;8.83;;;;;;;4.90;50.73;100734.38;6122371;22;97455;-78
2024/03/19 00:05:12;;;;;;;17.27;9.27;;;;;;;5.02;50.40;100737.81;6147397;22;97487;-78
2024/03/19 00:07:38;;;;;;;13.53;7.73;;;;;;;4.98;50.29;100736.97;6121956;22;96738;-84
2024/03/19 00:10:03;;;;;;;14.13;7.27;;;;;;;5.16;50.32;100733.41;6122331;22;96725;-78
2024/03/19 00:12:32;;;;;;;14.83;8.03;;;;;;;5.22;49.86;100738.56;6122354;22;100134;-78
2024/03/19 00:14:59;;;;;;;13.07;8.10;;;;;;;5.27;49.97;100728.13;6095908;22;100730;-81
2024/03/19 00:17:26;;;;;;;11.10;6.67;;;;;;;5.14;49.81;100742.94;6097037;22;96716;-78
2024/03/19 00:19:52;;;;;;;13.50;7.67;;;;;;;5.18;49.71;100734.25;6121664;22;96824;-78
2024/03/19 00:22:18;;;;;;;12.37;7.13;;;;;;;5.12;49.96;100736.88;6097465;22;98746;-80
2024/03/19 00:24:44;;;;;;;10.13;7.43;;;;;;;4.78;50.22;100721.44;6097723;22;100196;-78
2024/03/19 00:27:09;;;;;;;11.32;7.47;;;;;;;5.11;49.92;100732.53;6122152;22;97205;-78
2024/03/19 00:29:35;;;;;;;13.57;8.00;;;;;;;5.01;49.93;100738.69;6097384;22;96762;-78
2024/03/19 00:32:00;;;;;;;14.38;7.65;;;;;;;5.01;50.25;100733.47;6121599;22;97687;-78
2024/03/19 00:34:26;;;;;;;11.17;7.30;;;;;;;4.79;50.71;100733.56;6121761;22;100831;-79
2024/03/19 00:36:52;;;;;;;12.20;7.67;;;;;;;4.84;50.74;100715.34;6097382;22;96701;-79
2024/03/19 00:39:21;;;;;;;11.02;7.45;;;;;;;4.86;51.25;100735.28;6121815;22;97140;-78
2024/03/19 00:41:48;;;;;;;9.97;7.13;;;;;;;4.81;51.14;100725.75;6121517;22;100126;-78
2024/03/19 00:44:13;;;;;;;15.37;6.90;;;;;;;4.71;51.36;100725.78;6122226;22;97557;-79
2024/03/19 00:46:39;;;;;;;14.17;8.37;;;;;;;4.98;50.66;100737.81;6097924;22;96717;-78
2024/03/19 00:49:05;;;;;;;12.47;7.73;;;;;;;5.12;50.63;100723.84;6098128;22;97124;-78
2024/03/19 00:51:31;;;;;;;12.10;7.30;;;;;;;5.17;50.81;100724.72;6099262;22;97998;-81
2024/03/19 00:53:57;;;;;;;14.73;7.80;;;;;;;5.33;50.52;100733.31;6123051;22;97195;-78
2024/03/19 00:56:23;;;;;;;12.00;7.30;;;;;;;5.17;50.51;100735.97;6147914;22;96651;-78
2024/03/19 00:58:48;;;;;;;11.27;6.50;;;;;;;5.13;50.78;100713.44;6122909;22;96837;-82
2024/03/19 01:01:14;;;;;;;10.07;6.43;;;;;;;4.87;51.20;100718.78;6123074;22;97285;-78
2024/03/19 01:03:39;;;;;;;10.70;6.97;;;;;;;4.81;51.84;100736.16;6123043;22;97855;-78
2024/03/19 01:06:05;;;;;;;11.60;6.13;;;;;;;4.63;52.03;100724.09;6148366;22;96679;-78
2024/03/19 01:08:30;;;;;;;9.80;6.43;;;;;;;4.61;52.44;100734.47;6123420;22;97203;-78
2024/03/19 01:11:02;;;;;;;10.30;6.10;;;;;;;4.78;52.02;100724.03;6123489;22;100882;-78
2024/03/19 01:13:29;;;;;;;12.17;5.70;;;;;;;4.86;51.71;100727.47;6098637;22;100882;-78
2024/03/19 01:15:55;;;;;;;12.63;6.63;;;;;;;4.70;52.25;100715.38;6123765;22;96641;-78
2024/03/19 01:18:21;;;;;;;10.93;6.30;;;;;;;4.64;52.88;100729.28;6098247;22;96952;-78
2024/03/19 01:20:46;;;;;;;9.63;6.00;;;;;;;4.61;52.76;100729.28;6122286;22;100498;-78
2024/03/19 01:23:12;;;;;;;12.93;6.47;;;;;;;4.56;52.86;100722.38;6123008;22;99964;-78
2024/03/19 01:25:37;;;;;;;11.03;6.13;;;;;;;4.35;53.43;100729.34;6123346;22;96677;-78
2024/03/19 01:28:03;;;;;;;9.47;5.43;;;;;;;4.62;52.56;100725.81;6098375;22;97317;-78
2024/03/19 01:30:29;;;;;;;12.00;5.77;;;;;;;4.68;52.93;100723.22;6122909;22;96864;-78
2024/03/19 01:32:54;;;;;;;13.95;6.38;;;;;;;4.93;52.49;100734.38;6098294;22;100204;-78
2024/03/19 01:35:20;;;;;;;15.43;6.63;;;;;;;4.65;52.36;100735.34;6098467;22;96729;-78
2024/03/19 01:37:45;;;;;;;9.38;5.85;;;;;;;4.64;52.99;100728.41;6123372;22;97173;-78
2024/03/19 01:40:11;;;;;;;8.20;5.60;;;;;;;4.73;52.59;100715.38;6147973;22;97568;-78
2024/03/19 01:42:37;;;;;;;8.73;6.53;;;;;;;4.74;52.54;100714.50;6122988;22;97282;-78
2024/03/19 01:45:08;;;;;;;11.07;6.27;;;;;;;4.83;52.35;100730.09;6147569;22;96722;-78
2024/03/19 01:47:36;;;;;;;10.57;5.68;;;;;;;4.83;52.45;100729.19;6073531;22;96876;-78
2024/03/19 01:50:06;;;;;;;13.57;6.20;;;;;;;4.76;52.82;100728.38;6122857;22;100618;-78
2024/03/19 01:52:55;;;;;;;9.80;6.67;;;;;;;4.84;52.50;100725.75;6122755;22;97613;-79
2024/03/19 01:55:22;;;;;;;10.00;6.00;;;;;;;4.84;52.89;100725.75;6098757;22;96670;-78
2024/03/19 01:57:48;;;;;;;9.87;6.53;;;;;;;4.74;53.30;100736.19;6121753;22;96672;-78
2024/03/19 02:00:15;;;;;;;11.47;6.50;;;;;;;4.70;53.61;100728.38;6122334;22;100478;-81
2024/03/19 02:02:40;;;;;;;12.13;6.90;;;;;;;4.76;53.14;100730.97;6149410;22;97352;-77
2024/03/19 02:05:07;;;;;;;15.03;6.67;;;;;;;4.81;53.17;100736.16;6147627;22;97099;-78
2024/03/19 02:07:34;;;;;;;10.13;6.20;;;;;;;4.75;53.33;100744.84;6098057;22;96718;-81
2024/03/19 02:10:00;;;;;;;10.17;5.70;;;;;;;4.79;53.27;100741.34;6122538;22;98014;-78
2024/03/19 02:12:27;;;;;;;11.60;6.20;;;;;;;4.71;53.32;100736.19;6122918;22;97702;-78
2024/03/19 02:14:54;;;;;;;10.03;6.50;;;;;;;4.56;53.98;100740.56;6098084;22;96673;-78
2024/03/19 02:17:21;;;;;;;12.07;6.13;;;;;;;4.88;53.25;100748.25;6098532;22;96706;-78
2024/03/19 02:19:47;;;;;;;9.70;6.13;;;;;;;4.78;53.64;100736.19;6097802;22;100404;-79
2024/03/19 02:22:13;;;;;;;9.53;5.80;;;;;;;4.93;53.25;100744.78;6147890;22;97803;-78
2024/03/19 02:24:41;;;;;;;10.20;6.57;;;;;;;4.80;53.59;100732.69;6147903;22;97170;-79
2024/03/19 02:27:07;;;;;;;11.03;7.13;;;;;;;5.06;52.96;100745.59;6099043;22;96752;-78
2024/03/19 02:29:32;;;;;;;13.23;6.97;;;;;;;5.19;53.14;100749.84;6097665;22;100603;-78
2024/03/19 02:31:58;;;;;;;10.17;6.17;;;;;;;5.07;53.24;100741.25;6147738;22;97461;-78
2024/03/19 02:34:24;;;;;;;11.87;6.50;;;;;;;5.15;52.89;100748.16;6072259;22;97182;-82
2024/03/19 02:36:49;;;;;;;12.53;7.27;;;;;;;5.11;53.36;100753.38;6097663;22;96906;-79
2024/03/19 02:39:15;;;;;;;9.80;6.00;;;;;;;5.14;53.17;100740.34;6122449;22;97248;-78
2024/03/19 02:41:41;;;;;;;13.67;7.13;;;;;;;5.14;52.83;100749.00;6122917;22;97255;-78
2024/03/19 02:44:06;;;;;;;10.90;6.80;;;;;;;4.90;53.54;100747.38;6122627;22;97097;-78
2024/03/19 02:46:32;;;;;;;11.43;7.10;;;;;;;4.99;53.30;100739.53;6123170;22;96726;-78
2024/03/19 02:48:58;;;;;;;9.93;6.60;;;;;;;5.16;53.27;100747.28;6147913;22;97522;-78
2024/03/19 02:51:23;;;;;;;11.60;6.53;;;;;;;5.22;53.01;100743.78;6098507;22;100326;-78
2024/03/19 02:53:49;;;;;;;13.50;7.47;;;;;;;5.21;53.20;100757.66;6097896;22;96813;-80
2024/03/19 02:56:15;;;;;;;12.90;6.63;;;;;;;5.27;52.96;100755.03;6098159;22;96712;-78
2024/03/19 02:58:41;;;;;;;16.70;8.17;;;;;;;5.29;52.97;100758.47;6095063;22;97328;-78
2024/03/19 03:01:07;;;;;;;10.90;7.10;;;;;;;5.34;52.62;100748.91;6120804;22;97265;-78
2024/03/19 03:03:33;;;;;;;11.00;7.13;;;;;;;5.34;52.83;100758.47;6147600;22;96904;-78
2024/03/19 03:05:59;;;;;;;12.17;6.80;;;;;;;5.47;52.30;100756.63;6098342;22;97755;-78
2024/03/19 03:08:24;;;;;;;17.73;7.40;;;;;;;5.39;52.63;100743.69;6148559;22;98116;-80
2024/03/19 03:10:50;;;;;;;12.55;8.18;;;;;;;5.32;52.83;100763.66;6122884;22;97340;-78
2024/03/19 03:13:15;;;;;;;13.37;7.80;;;;;;;5.19;53.37;100764.63;6149070;22;96667;-78
2024/03/19 03:15:41;;;;;;;18.07;7.93;;;;;;;5.29;53.11;100762.81;6123458;22;96835;-78
2024/03/19 03:18:06;;;;;;;12.27;7.77;;;;;;;5.36;53.02;100760.19;6121763;22;96852;-78
2024/03/19 03:20:32;;;;;;;13.57;8.00;;;;;;;5.25;53.07;100768.91;6141222;22;97226;-79
2024/03/19 03:22:57;;;;;;;16.77;7.77;;;;;;;5.35;53.12;100774.09;6091505;23;96718;-78
2024/03/19 03:25:23;;;;;;;13.37;8.00;;;;;;;5.39;53.23;100783.59;6091878;23;96763;-78
2024/03/19 03:27:50;;;;;;;16.17;8.00;;;;;;;5.43;53.04;100774.88;6116413;23;97208;-78
2024/03/19 03:30:16;;;;;;;12.10;7.87;;;;;;;5.58;52.61;100779.13;6117838;23;97335;-78
2024/03/19 03:32:45;;;;;;;13.38;8.23;;;;;;;5.55;52.86;100773.06;6092087;23;96643;-78
2024/03/19 03:35:11;;;;;;;14.10;8.38;;;;;;;5.39;53.70;100780.13;6117682;23;96768;-78
2024/03/19 03:37:37;;;;;;;14.48;8.27;;;;;;;5.34;53.49;100781.88;6091380;23;100860;-79
2024/03/19 03:40:12;;;;;;;12.77;8.57;;;;;;;5.33;53.38;100773.22;6117051;23;97629;-78
2024/03/19 03:42:38;;;;;;;14.80;8.57;;;;;;;5.47;53.39;100790.47;6116085;23;96712;-78
2024/03/19 03:45:04;;;;;;;13.30;8.30;;;;;;;5.49;53.54;100789.59;6116258;23;96924;-78
2024/03/19 03:47:30;;;;;;;20.30;8.97;;;;;;;5.30;53.66;100783.66;6115463;22;100441;-80
2024/03/19 03:49:55;;;;;;;16.13;9.27;;;;;;;5.07;54.10;100780.28;6117483;23;97265;-78
2024/03/19 03:52:21;;;;;;;14.33;9.07;;;;;;;5.33;54.06;100799.25;6093013;23;96614;-81
2024/03/19 03:54:47;;;;;;;23.10;10.23;;;;;;;5.39;53.77;100791.41;6118069;23;96674;-78
2024/03/19 03:57:12;;;;;;;14.97;8.63;;;;;;;5.50;53.59;100791.34;6092965;23;97429;-78
2024/03/19 03:59:37;;;;;;;19.23;9.57;;;;;;;5.47;53.68;100799.19;6067789;23;100641;-78
2024/03/19 04:02:04;;;;;;;16.30;10.13;;;;;;;5.44;53.59;100796.59;6116502;23;96848;-79
2024/03/19 04:04:29;;;;;;;15.60;9.30;;;;;;;5.48;53.39;100802.66;6117909;23;97207;-81
2024/03/19 04:06:55;;;;;;;17.83;10.03;;;;;;;5.55;53.66;100809.53;6118913;23;97372;-79
2024/03/19 04:09:20;;;;;;;15.90;9.25;;;;;;;5.56;53.31;100808.69;6118451;23;97779;-78
2024/03/19 04:11:46;;;;;;;16.15;9.55;;;;;;;5.48;53.74;100805.25;6091873;23;97087;-78
2024/03/19 04:14:11;;;;;;;19.00;10.75;;;;;;;5.55;53.87;100823.41;6092467;23;96860;-78
2024/03/19 04:16:37;;;;;;;18.15;9.32;;;;;;;5.45;53.75;100820.00;6118432;23;97908;-78
2024/03/19 04:19:02;;;;;;;18.83;10.07;;;;;;;5.37;54.04;100813.97;6067004;23;100444;-80
2024/03/19 04:21:28;;;;;;;23.57;10.77;;;;;;;5.48;53.88;100821.75;6142965;22;96744;-78
2024/03/19 04:23:53;;;;;;;13.87;9.33;;;;;;;5.22;54.42;100809.69;6121954;22;97051;-78
2024/03/19 04:26:19;;;;;;;16.77;10.13;;;;;;;4.95;55.16;100820.22;6122607;22;97352;-78
2024/03/19 04:28:44;;;;;;;15.38;9.45;;;;;;;5.09;55.05;100830.56;6097034;22;100206;-78
2024/03/19 04:31:10;;;;;;;14.63;9.57;;;;;;;4.78;55.69;100832.41;6147930;22;96741;-81
2024/03/19 04:33:36;;;;;;;20.03;10.90;;;;;;;4.67;56.19;100833.28;6148295;22;96811;-79
2024/03/19 04:36:02;;;;;;;18.60;10.10;;;;;;;4.40;56.82;100842.00;6122739;22;97419;-79
2024/03/19 04:38:28;;;;;;;23.33;10.30;;;;;;;4.40;56.96;100833.34;6098061;22;100313;-78
2024/03/19 04:40:53;;;;;;;22.97;10.73;;;;;;;4.37;57.22;100838.53;6098645;22;96673;-78
2024/03/19 04:43:20;;;;;;;18.03;10.17;;;;;;;4.39;57.10;100827.25;6123539;22;97185;-78
2024/03/19 04:45:45;;;;;;;15.73;9.73;;;;;;;4.48;56.94;100826.38;6123778;22;97374;-78
2024/03/19 04:48:11;;;;;;;17.70;10.30;;;;;;;4.74;56.17;100839.34;6098070;22;100158;-78
2024/03/19 04:50:36;;;;;;;17.17;10.33;;;;;;;4.60;57.05;100839.38;6123242;22;96684;-78
2024/03/19 04:53:02;;;;;;;16.97;10.10;;;;;;;4.52;57.03;100835.91;6073872;22;96989;-79
2024/03/19 04:55:27;;;;;;;20.87;11.23;;;;;;;4.60;56.76;100847.19;6123280;22;97451;-78
2024/03/19 04:57:53;;;;;;;19.93;10.90;;;;;;;4.65;56.91;100835.00;6097778;22;100830;-78
2024/03/19 05:00:18;;;;;;;18.70;10.97;;;;;;;4.91;56.40;100834.09;6097287;22;96916;-78
2024/03/19 05:02:47;;;;;;;19.93;11.40;;;;;;;4.94;56.23;100839.28;6098851;22;96753;-78
2024/03/19 05:05:13;;;;;;;20.73;10.30;;;;;;;4.84;56.25;100843.66;6098520;22;100557;-78
2024/03/19 05:07:41;;;;;;;18.63;11.13;;;;;;;4.52;56.98;100848.91;6098596;22;97232;-79
2024/03/19 05:10:08;;;;;;;18.30;10.37;;;;;;;4.48;57.60;100858.47;6073999;22;97193;-79
2024/03/19 05:12:33;;;;;;;21.47;10.43;;;;;;;4.38;57.79;100856.72;6073560;22;96781;-79
2024/03/19 05:14:59;;;;;;;17.47;10.83;;;;;;;4.42;57.76;100855.88;6098066;22;100357;-79
2024/03/19 05:17:24;;;;;;;24.77;11.40;;;;;;;4.63;57.23;100856.72;6123234;22;97198;-77
2024/03/19 05:19:50;;;;;;;24.17;10.87;;;;;;;4.46;57.55;100842.00;6097803;22;96769;-82
2024/03/19 05:22:15;;;;;;;20.27;11.17;;;;;;;4.75;56.67;100856.69;6122851;22;97166;-78
2024/03/19 05:24:41;;;;;;;20.00;11.27;;;;;;;4.83;57.24;100873.16;6148411;22;97324;-78
2024/03/19 05:27:08;;;;;;;19.80;11.63;;;;;;;4.81;56.89;100864.47;6096762;22;97315;-82
2024/03/19 05:29:33;;;;;;;18.90;11.57;;;;;;;4.70;57.22;100874.88;6122128;22;97011;-78
2024/03/19 05:31:59;;;;;;;21.70;11.90;;;;;;;4.66;57.44;100882.72;6096618;22;96857;-77
2024/03/19 05:34:24;;;;;;;27.13;11.80;;;;;;;4.66;57.80;100880.13;6095442;22;97476;-78
2024/03/19 05:36:50;;;;;;;20.20;11.60;;;;;;;4.71;57.64;100879.25;6097150;22;100811;-79
2024/03/19 05:39:15;;;;;;;22.80;11.23;;;;;;;4.69;57.78;100886.19;6148488;22;96911;-79
2024/03/19 05:41:41;;;;;;;27.07;11.30;;;;;;;4.70;57.60;100889.63;6073199;22;97055;-78
2024/03/19 05:44:07;;;;;;;19.57;12.03;;;;;;;4.81;57.50;100892.22;6122386;22;97471;-78
2024/03/19 05:46:33;;;;;;;24.77;12.60;;;;;;;4.66;57.66;100872.31;6121004;22;97277;-79
2024/03/19 05:48:58;;;;;;;18.73;11.30;;;;;;;4.82;57.85;100893.97;6121869;22;96754;-78
2024/03/19 05:51:24;;;;;;;22.13;12.70;;;;;;;5.00;57.16;100880.91;6149019;22;96800;-79
2024/03/19 05:53:49;;;;;;;21.45;12.40;;;;;;;4.97;57.19;100893.94;6097412;22;97357;-79
2024/03/19 05:56:15;;;;;;;19.97;12.07;;;;;;;5.12;56.78;100883.50;6121567;22;98697;-78
2024/03/19 05:58:40;;;;;;;26.47;11.33;;;;;;;5.26;56.84;100888.66;6096229;22;97185;-84
2024/03/19 06:01:06;;;;;;;20.43;11.77;;;;;;;5.26;56.58;100890.38;6120745;22;97276;-78
2024/03/19 06:03:32;;;;;;;25.57;14.03;;;;;;;5.20;56.62;100889.53;6122065;22;97600;-83
2024/03/19 06:06:31;;;;;;;18.95;11.75;;;;;;;5.36;56.41;100894.72;6097102;22;97321;-78
2024/03/19 06:08:49;;;;;;;19.52;12.07;;;;;;;5.54;56.11;100898.97;6117777;22;97044;-78
2024/03/19 06:11:15;;;;;;;23.42;12.43;;;;;;;5.62;56.03;100894.59;6121562;22;97089;-75
2024/03/19 06:13:40;;;;;;;25.02;12.65;;;;;;;5.78;55.59;100884.97;6120793;22;97541;-81
2024/03/19 06:16:06;;;;;;;22.58;12.50;;;;;;;5.84;55.72;100900.56;6095792;22;97595;-79
2024/03/19 06:18:32;;;;;;;22.98;13.30;;;;;;;5.58;55.42;100900.69;6149031;22;96515;-79
2024/03/19 06:20:57;;;;;;;18.97;12.10;;;;;;;5.66;55.95;100891.97;6116702;23;97108;-79
2024/03/19 06:23:25;;;;;;;18.27;11.47;;;;;;;5.62;55.66;100905.88;6115549;23;100648;-81
2024/03/19 06:25:51;;;;;;;22.83;12.68;;;;;;;5.52;56.18;100913.72;6090970;23;100252;-78
2024/03/19 06:28:17;;;;;;;19.00;12.57;;;;;;;5.56;55.99;100916.31;6091456;23;96773;-78
2024/03/19 06:30:43;;;;;;;24.92;13.38;;;;;;;5.36;56.56;100918.13;6116184;23;96675;-78
2024/03/19 06:33:08;;;;;;;20.27;12.88;;;;;;;5.40;56.84;100915.50;6116256;23;97399;-78
2024/03/19 06:35:34;;;;;;;25.15;13.23;;;;;;;5.58;56.68;100906.75;6091556;23;99184;-78
2024/03/19 06:38:02;;;;;;;26.67;14.60;;;;;;;5.77;56.21;100907.53;6091225;23;96825;-78
2024/03/19 06:40:30;;;;;;;18.00;12.75;;;;;;;5.95;55.76;100903.13;6115980;23;97290;-78
2024/03/19 06:42:55;;;;;;;22.13;14.38;;;;;;;6.01;55.71;100908.31;6116011;23;98069;-81
2024/03/19 06:45:21;;;;;;;21.60;14.13;;;;;;;6.15;55.58;100910.84;6090645;23;100039;-79
2024/03/19 06:47:46;;;;;;;22.67;14.40;;;;;;;5.90;55.98;100884.88;6090793;23;96775;-78
2024/03/19 06:50:18;;;;;;;23.48;13.85;;;;;;;5.73;56.61;100910.16;6067172;23;97360;-77
2024/03/19 06:52:45;;;;;;;20.13;13.60;;;;;;;5.86;56.80;100899.66;6116983;23;98140;-81
2024/03/19 06:55:11;;;;;;;23.58;13.70;;;;;;;6.41;55.79;100905.44;6067070;23;97878;-78
2024/03/19 06:57:36;;;;;;;25.48;14.25;;;;;;;6.41;55.42;100921.97;6115417;23;96947;-78
2024/03/19 07:00:05;;;;;;;19.90;12.30;;;;;;;6.61;55.17;100919.19;6090892;23;96787;-78
2024/03/19 07:02:31;;;;;;;25.67;14.32;;;;;;;6.77;54.74;100919.91;6114520;23;97538;-82
2024/03/19 07:04:57;;;;;;;23.13;12.60;;;;;;;7.06;54.03;100922.25;6117255;23;97876;-81
2024/03/19 07:07:22;;;;;;;21.98;13.43;;;;;;;7.49;53.12;100912.19;6118139;23;96608;-78
2024/03/19 07:09:53;;;;;;;24.27;12.32;;;;;;;8.05;51.87;100922.78;6091615;23;96761;-78
2024/03/19 07:12:21;;;;;;;21.92;12.82;;;;;;;7.76;52.05;100930.16;6092638;23;97599;-82
2024/03/19 07:14:47;;;;;;;27.98;13.93;;;;;;;7.47;52.62;100919.19;6091358;23;98580;-82
2024/03/19 07:17:13;;;;;;;21.65;12.52;;;;;;;7.79;52.42;100917.06;6090658;23;96720;-82
2024/03/19 07:19:38;;;;;;;20.83;12.40;;;;;;;7.85;52.04;100928.31;6069251;22;96731;-79
2024/03/19 07:22:04;;;;;;;20.10;12.15;;;;;;;8.04;52.09;100928.91;6120459;22;101847;-77
2024/03/19 07:24:30;;;;;;;20.00;11.88;;;;;;;8.83;50.70;100923.38;6120905;22;97203;-76
2024/03/19 07:26:55;;;;;;;19.95;11.15;;;;;;;9.51;48.50;100931.72;6095186;22;97171;-76
2024/03/19 07:29:21;;;;;;;17.95;11.35;;;;;;;10.01;47.95;100928.06;6121070;22;97210;-79
2024/03/19 07:31:47;;;;;;;19.27;11.40;;;;;;;10.38;47.06;100923.75;6119673;22;97483;-79
2024/03/19 07:34:13;;;;;;;15.55;10.75;;;;;;;10.96;45.83;100925.78;6120995;22;97225;-77
2024/03/19 07:36:40;;;;;;;19.35;10.73;;;;;;;11.15;45.18;100932.31;6147015;22;96643;-76
2024/03/19 07:39:12;;;;;;;15.35;10.32;;;;;;;11.27;44.20;100931.09;6120423;22;97194;-78
2024/03/19 07:41:41;;;;;;;20.90;10.77;;;;;;;11.13;44.38;100930.63;6121523;22;97425;-76
2024/03/19 07:44:07;;;;;;;16.95;10.63;;;;;;;11.40;44.65;100935.09;6120816;22;97552;-79
2024/03/19 07:46:33;;;;;;;20.77;10.48;;;;;;;11.55;43.72;100924.19;6095342;22;96729;-76
2024/03/19 07:48:59;;;;;;;15.15;9.85;;;;;;;11.56;44.02;100925.91;6147368;22;96724;-75
2024/03/19 07:51:26;;;;;;;10.52;8.15;;;;;;;11.61;43.23;100928.41;6119798;22;100179;-75
2024/03/19 07:53:51;;;;;;;14.05;9.50;;;;;;;11.76;43.37;100930.59;6144537;22;97235;-79
2024/03/19 07:56:17;;;;;;;12.27;8.55;;;;;;;13.06;41.27;100922.97;6146374;22;96733;-79
2024/03/19 07:58:42;;;;;;;12.48;8.32;;;;;;;12.04;42.33;100932.41;6120274;22;96815;-77
2024/03/19 08:01:08;;;;;;;12.45;8.75;;;;;;;11.70;43.12;100936.03;6094223;22;100835;-76
2024/03/19 08:03:36;;;;;;;11.10;7.85;;;;;;;13.51;40.20;100929.31;6095271;22;100641;-79
2024/03/19 08:06:02;;;;;;;10.38;7.60;;;;;;;14.17;38.99;100932.97;6122452;22;96759;-79
2024/03/19 08:08:28;;;;;;;11.20;7.60;;;;;;;14.84;38.09;100933.81;6122933;22;96859;-77
2024/03/19 08:10:55;;;;;;;14.63;8.55;;;;;;;15.61;36.66;100939.25;6088693;22;100727;-82
2024/03/19 08:13:21;;;;;;;15.70;9.32;;;;;;;15.50;36.12;100939.72;6141065;22;97349;-84
2024/03/19 08:15:46;;;;;;;10.45;8.20;;;;;;;14.95;36.38;100942.13;6114268;22;97554;-88
2024/03/19 08:18:13;;;;;;;11.10;8.05;;;;;;;14.56;36.62;100947.31;6113382;22;97259;-77
2024/03/19 08:20:39;;;;;;;11.65;7.57;;;;;;;14.72;36.27;100937.84;6134560;22;97354;-87
2024/03/19 08:23:05;;;;;;;14.98;9.63;;;;;;;13.68;38.27;100936.63;6084205;23;97452;-79
2024/03/19 08:25:31;;;;;;;12.63;9.98;;;;;;;12.76;40.04;100947.72;6109714;22;97269;-77
2024/03/19 08:27:57;;;;;;;14.88;9.82;;;;;;;13.36;39.45;100949.19;6110578;22;97036;-82
2024/03/19 08:30:23;;;;;;;11.85;9.18;;;;;;;14.29;37.61;100949.25;6110419;23;97868;-76
2024/03/19 08:32:49;;;;;;;12.68;9.55;;;;;;;14.86;36.50;100945.16;6085560;23;100610;-78
2024/03/19 08:35:16;;;;;;;12.52;9.68;;;;;;;14.13;37.54;100955.09;6084637;23;97211;-83
2024/03/19 08:37:42;;;;;;;13.93;7.93;;;;;;;13.40;38.26;100956.06;6084352;23;97495;-78
2024/03/19 08:40:09;;;;;;;12.43;9.35;;;;;;;12.56;38.89;100956.25;6107317;23;97684;-78
2024/03/19 08:42:35;;;;;;;14.70;10.52;;;;;;;11.87;40.56;100956.63;6109034;23;97910;-85
2024/03/19 08:45:04;;;;;;;13.93;9.93;;;;;;;10.64;42.96;100962.47;6086265;23;97076;-84
2024/03/19 08:47:30;;;;;;;15.15;11.27;;;;;;;10.35;43.95;100965.75;6111254;23;97415;-75
2024/03/19 08:49:55;;;;;;;15.48;10.75;;;;;;;9.80;44.30;100960.84;6086683;23;100380;-78
2024/03/19 08:52:21;;;;;;;14.23;8.82;;;;;;;10.10;43.65;100954.09;6113032;23;98220;-80
2024/03/19 08:54:48;;;;;;;15.10;10.23;;;;;;;10.20;43.82;100963.47;6112757;23;97228;-79
2024/03/19 08:57:14;;;;;;;20.45;12.23;;;;;;;10.17;43.82;100953.91;6062503;23;97388;-80
2024/03/19 08:59:40;;;;;;;18.08;13.25;;;;;;;9.99;45.03;100967.44;6110010;23;97382;-88
2024/03/19 09:02:05;;;;;;;18.42;10.27;;;;;;;9.48;45.39;100971.09;6087820;23;100852;-76
2024/03/19 09:04:35;;;;;;;15.68;10.88;;;;;;;9.22;46.04;100968.94;6112530;23;97110;-85
2024/03/19 09:07:01;;;;;;;17.08;10.90;;;;;;;9.48;45.15;100964.94;6087588;23;97089;-81
2024/03/19 09:09:27;;;;;;;14.63;10.65;;;;;;;9.45;45.88;100970.25;6086005;23;97434;-86
2024/03/19 09:11:53;;;;;;;14.68;9.13;;;;;;;9.10;45.84;100969.16;6107215;23;97926;-73
2024/03/19 09:14:18;;;;;;;11.15;7.80;;;;;;;8.87;46.26;100974.78;6108434;23;96629;-74
2024/03/19 09:16:44;;;;;;;8.88;7.35;;;;;;;9.11;44.90;100968.28;6085022;23;97092;-85
2024/03/19 09:19:09;;;;;;;9.48;7.07;;;;;;;9.22;44.73;100966.34;6135349;22;97970;-77
2024/03/19 09:21:35;;;;;;;14.23;9.38;;;;;;;9.31;44.93;100965.28;6116260;23;97781;-77
2024/03/19 09:24:02;;;;;;;16.70;9.02;;;;;;;9.11;45.45;100967.41;6141899;22;96967;-78
2024/03/19 09:26:28;;;;;;;14.82;12.23;;;;;;;9.03;45.51;100970.16;6117428;23;97169;-77
2024/03/19 09:28:53;;;;;;;14.13;10.30;;;;;;;8.97;45.40;100972.88;6087664;23;100319;-76
2024/03/19 09:31:19;;;;;;;14.20;10.07;;;;;;;8.85;45.74;100979.19;6107340;23;100681;-77
2024/03/19 09:33:44;;;;;;;13.23;9.75;;;;;;;9.04;44.86;100967.50;6108346;22;97303;-76
2024/03/19 09:36:10;;;;;;;17.75;11.45;;;;;;;8.96;45.32;100966.78;6109454;23;97016;-85
2024/03/19 09:38:35;;;;;;;13.88;10.45;;;;;;;9.21;44.97;100969.81;6082301;23;100878;-85
2024/03/19 09:41:03;;;;;;;15.65;11.45;;;;;;;9.24;45.16;100977.63;6107276;23;97905;-83
2024/03/19 09:43:32;;;;;;;12.90;9.75;;;;;;;9.29;44.44;100974.94;6107986;23;97656;-86
2024/03/19 09:45:59;;;;;;;14.13;10.68;;;;;;;9.40;44.35;100985.22;6108817;23;97369;-79
2024/03/19 09:48:24;;;;;;;28.60;15.45;;;;;;;9.39;44.43;100986.97;6105183;23;98280;-81
2024/03/19 09:50:51;;;;;;;17.17;10.82;;;;;;;9.39;44.44;100976.47;6082515;23;98569;-86
2024/03/19 09:53:24;;;;;;;16.35;11.52;;;;;;;9.38;44.71;100979.13;6108507;23;97314;-81
2024/03/19 09:55:52;;;;;;;14.30;10.02;;;;;;;9.36;44.12;100975.69;6108285;23;97425;-76
2024/03/19 09:58:19;;;;;;;39.17;18.77;;;;;;;9.39;44.43;100980.84;6081923;23;97660;-84
2024/03/19 10:00:47;;;;;;;34.03;16.42;;;;;;;9.27;45.08;100974.94;6108344;23;97933;-86
2024/03/19 10:03:13;;;;;;;17.88;11.35;;;;;;;9.10;45.07;100982.25;6111364;22;97126;-78
2024/03/19 10:05:39;;;;;;;14.98;11.18;;;;;;;9.17;44.99;100980.41;6108528;23;97183;-77
2024/03/19 10:08:05;;;;;;;33.55;16.75;;;;;;;9.18;44.99;100979.50;6109368;23;97277;-77
2024/03/19 10:10:31;;;;;;;26.08;11.70;;;;;;;9.27;44.65;100985.44;6109841;23;97374;-85
2024/03/19 10:12:57;;;;;;;31.02;16.00;;;;;;;9.28;44.66;100974.06;6083512;23;97139;-76
2024/03/19 10:15:24;;;;;;;73.20;29.05;;;;;;;9.25;44.13;100988.97;6082008;23;97230;-87
2024/03/19 10:17:51;;;;;;;69.70;28.80;;;;;;;9.19;44.55;100983.84;6108239;23;97694;-82
2024/03/19 10:20:17;;;;;;;39.13;18.33;;;;;;;8.88;45.36;100979.13;6106164;23;97638;-76
2024/03/19 10:22:47;;;;;;;28.23;14.93;;;;;;;8.99;44.87;100979.81;6108818;23;97238;-77
2024/03/19 10:25:16;;;;;;;15.93;11.57;;;;;;;8.95;45.33;100987.75;6111091;23;97207;-83
2024/03/19 10:27:46;;;;;;;41.05;12.65;;;;;;;8.70;45.41;100977.69;6107362;23;97461;-79
2024/03/19 10:30:17;;;;;;;17.83;12.35;;;;;;;8.67;45.87;100989.94;6105822;23;100524;-85
2024/03/19 10:32:44;;;;;;;15.85;10.48;;;;;;;8.72;44.87;100991.59;6109043;23;96709;-85
2024/03/19 10:35:18;;;;;;;13.68;10.82;;;;;;;8.90;44.43;100984.34;6085110;23;97425;-77
2024/03/19 10:37:48;;;;;;;16.75;11.95;;;;;;;8.93;45.28;100987.78;6056683;23;100450;-92
2024/03/19 10:40:15;;;;;;;28.77;12.52;;;;;;;9.42;44.85;100986.03;6082556;23;100280;-80
2024/03/19 10:42:42;;;;;;;58.30;24.80;;;;;;;9.65;43.22;100990.84;6109597;23;97156;-82
2024/03/19 10:45:28;;;;;;;35.40;17.70;;;;;;;9.80;42.31;100979.19;6108446;23;97702;-77
2024/03/19 10:47:54;;;;;;;14.48;8.85;;;;;;;9.60;42.09;100987.44;6106913;23;97363;-79
2024/03/19 10:50:25;;;;;;;11.65;8.40;;;;;;;9.61;40.93;100987.44;5036981;27;1316192;-79
2024/03/19 10:52:53;;;;;;;11.20;7.53;;;;;;;9.48;41.89;100988.53;5067289;27;98266;-76
2024/03/19 10:55:20;;;;;;;20.20;11.65;;;;;;;9.40;41.60;100949.41;5054658;27;98376;-75
2024/03/19 10:58:02;;;;;;;14.05;8.48;;;;;;;9.64;41.47;100971.63;5053891;27;97455;-75
2024/03/19 11:00:27;;;;;;;;;;;;;;;9.80;42.33;100987.06;5061449;27;98669;-82
2024/03/19 11:02:58;;;;;;;23.98;14.93;;;;;;;10.01;41.18;100970.88;5071430;27;96833;-82
2024/03/19 11:05:24;;;;;;;17.33;10.82;;;;;;;10.09;40.95;100981.19;5050383;27;97593;-82
2024/03/19 11:07:54;;;;;;;14.43;10.05;;;;;;;10.17;41.02;100976.66;5067963;27;97538;-79
2024/03/19 11:10:35;;;;;;;25.58;13.90;;;;;;;10.17;40.52;100985.38;5068566;27;96794;-79
2024/03/19 11:13:22;;;;;;;11.35;8.07;;;;;;;10.12;39.97;100983.75;5045793;27;97001;-83
2024/03/19 11:15:49;;;;;;;15.75;9.18;;;;;;;10.03;40.05;100974.31;5054140;27;100405;-84